Time;durP1;ratioP1;P1;durP2;ratioP2;P2;SDS_P1;SDS_P2;PMS_P1;PMS_P2;Temp;Humidity;BMP_temperature;BMP_pressure;BME280_temperature;BME280_humidity;BME280_pressure;Samples;Min_cycle;Max_cycle;Signal;HPM_P1;HPM_P2
2022/07/17 00:00:43;;;;;;;4.28;1.40;;;;;;;13.13;73.07;100802.34;3522771;79;20982;-79
2022/07/17 00:05:36;;;;;;;2.77;1.20;;;;;;;13.11;73.31;100806.23;3526983;77;20970;-79
2022/07/17 00:10:28;;;;;;;1.80;1.15;;;;;;;13.08;73.72;100800.98;3559188;79;20962;-79
2022/07/17 00:15:20;;;;;;;1.52;1.42;;;;;;;13.04;73.50;100807.05;3588734;77;21605;-78
2022/07/17 00:20:13;;;;;;;2.52;1.45;;;;;;;13.06;73.51;100809.67;3545117;79;20981;-79
2022/07/17 00:25:06;;;;;;;3.60;1.77;;;;;;;13.11;73.49;100813.17;3540701;79;21512;-78
2022/07/17 00:29:58;;;;;;;2.30;1.20;;;;;;;13.12;73.68;100819.71;3572633;77;20911;-78
2022/07/17 00:34:51;;;;;;;3.22;1.12;;;;;;;13.13;73.66;100818.00;3551610;79;21013;-78
2022/07/17 00:39:43;;;;;;;3.58;1.40;;;;;;;13.15;73.67;100820.19;3521815;77;21012;-79
2022/07/17 00:44:35;;;;;;;3.40;1.57;;;;;;;13.12;73.76;100826.67;3579392;77;21544;-79
2022/07/17 00:49:28;;;;;;;3.17;1.30;;;;;;;13.12;73.77;100831.90;3548135;77;21025;-78
2022/07/17 00:54:22;;;;;;;2.00;1.30;;;;;;;13.13;73.94;100838.88;3549900;77;21495;-79
2022/07/17 00:59:15;;;;;;;2.67;1.07;;;;;;;13.16;73.83;100840.19;3569052;77;20982;-78
2022/07/17 01:04:07;;;;;;;1.30;1.02;;;;;;;13.19;74.23;100837.61;3574738;77;20934;-79
2022/07/17 01:08:59;;;;;;;2.02;1.00;;;;;;;13.14;73.88;100849.75;3537299;77;20898;-79
2022/07/17 01:13:52;;;;;;;1.40;1.25;;;;;;;13.08;73.75;100856.23;3607713;77;21467;-79
2022/07/17 01:18:44;;;;;;;2.10;1.82;;;;;;;13.03;74.02;100854.01;3619416;77;20934;-79
2022/07/17 01:23:48;;;;;;;2.35;1.20;;;;;;;13.03;73.99;100855.31;3551324;77;21017;-78
2022/07/17 01:28:40;;;;;;;1.90;1.20;;;;;;;13.03;73.88;100867.92;3506655;79;21092;-79
2022/07/17 01:33:33;;;;;;;3.83;1.55;;;;;;;13.06;74.08;100868.41;3573550;78;21460;-79
2022/07/17 01:38:25;;;;;;;3.85;2.50;;;;;;;13.03;74.19;100868.36;3522138;79;21501;-79
2022/07/17 01:43:18;;;;;;;1.37;1.27;;;;;;;13.02;74.18;100860.08;3461800;79;21015;-79
2022/07/17 01:48:10;;;;;;;2.20;1.52;;;;;;;12.97;74.22;100864.83;3547360;79;20923;-79
2022/07/17 01:53:02;;;;;;;3.17;1.57;;;;;;;12.91;74.23;100858.27;3499740;80;20967;-79
2022/07/17 01:57:55;;;;;;;3.75;1.52;;;;;;;12.88;74.12;100859.97;3527381;77;21519;-79
2022/07/17 02:02:47;;;;;;;2.45;1.42;;;;;;;12.82;74.23;100876.41;3479636;79;21543;-79
2022/07/17 02:07:39;;;;;;;1.95;1.10;;;;;;;12.86;74.42;100876.02;3529368;79;21030;-79
2022/07/17 02:12:31;;;;;;;2.45;1.32;;;;;;;12.79;74.35;100880.31;3508482;78;20922;-79
2022/07/17 02:17:23;;;;;;;1.35;1.15;;;;;;;12.75;74.25;100891.56;3543764;79;20947;-79
2022/07/17 02:22:16;;;;;;;3.52;1.40;;;;;;;12.71;74.43;100895.00;3473424;78;21113;-79
2022/07/17 02:27:08;;;;;;;2.92;1.45;;;;;;;12.73;74.57;100896.78;3510797;79;20975;-79
2022/07/17 02:32:00;;;;;;;6.12;1.20;;;;;;;12.77;74.87;100891.17;3415405;80;20958;-79
2022/07/17 02:36:52;;;;;;;2.40;1.30;;;;;;;12.74;74.72;100894.61;3455300;80;20986;-79
2022/07/17 02:41:45;;;;;;;3.75;1.22;;;;;;;12.73;74.69;100898.50;3485720;80;20948;-79
2022/07/17 02:46:37;;;;;;;3.27;2.15;;;;;;;12.69;74.95;100896.72;3419948;80;21091;-79
2022/07/17 02:51:29;;;;;;;3.62;1.37;;;;;;;12.70;75.07;100901.09;3461509;80;21029;-79
2022/07/17 02:56:21;;;;;;;3.12;1.85;;;;;;;12.69;75.10;100904.55;3435734;80;21001;-79
2022/07/17 03:01:14;;;;;;;2.72;1.95;;;;;;;12.69;75.18;100904.55;3502872;80;20986;-79
2022/07/17 03:06:06;;;;;;;4.37;2.25;;;;;;;12.77;75.42;100906.39;3471390;79;20959;-79
2022/07/17 03:10:58;;;;;;;3.65;2.20;;;;;;;12.78;75.52;100917.69;3509608;80;21019;-78
2022/07/17 03:15:50;;;;;;;4.33;2.30;;;;;;;12.83;75.43;100921.23;3474944;80;21508;-79
2022/07/17 03:20:42;;;;;;;5.10;2.60;;;;;;;12.87;75.46;100924.75;3423870;80;20954;-79
2022/07/17 03:25:35;;;;;;;4.75;2.47;;;;;;;12.91;75.41;100926.52;3445578;80;20974;-79
2022/07/17 03:30:27;;;;;;;2.20;1.95;;;;;;;13.00;75.50;100933.14;3568182;77;20936;-79
2022/07/17 03:35:19;;;;;;;3.55;2.50;;;;;;;13.10;75.63;100942.83;3582236;77;21056;-79
2022/07/17 03:40:12;;;;;;;5.35;1.98;;;;;;;13.13;75.41;100952.44;3574231;77;20943;-79
2022/07/17 03:45:05;;;;;;;3.08;2.75;;;;;;;13.22;75.53;100958.19;3561090;77;20931;-79
2022/07/17 03:49:57;;;;;;;4.10;2.42;;;;;;;13.31;75.30;100953.08;3561088;77;20947;-79
2022/07/17 03:54:49;;;;;;;3.65;2.20;;;;;;;13.35;75.24;100957.47;3526004;79;20946;-79
2022/07/17 03:59:41;;;;;;;4.50;2.45;;;;;;;13.48;75.45;100950.61;3600512;78;20988;-79
2022/07/17 04:04:33;;;;;;;7.20;2.92;;;;;;;13.51;75.13;100953.26;3617351;77;20970;-79
2022/07/17 04:09:26;;;;;;;2.72;2.25;;;;;;;13.54;74.82;100955.91;3560502;78;20969;-79
2022/07/17 04:14:18;;;;;;;3.92;2.20;;;;;;;13.67;74.66;100952.52;3552176;77;21456;-79
2022/07/17 04:19:10;;;;;;;3.20;1.90;;;;;;;13.78;74.38;100956.96;3612099;77;21448;-79
2022/07/17 04:24:02;;;;;;;3.05;1.60;;;;;;;13.86;74.46;100953.95;3609707;77;21736;-79
2022/07/17 04:28:55;;;;;;;3.75;1.85;;;;;;;13.81;74.40;100967.45;3612821;78;20926;-79
2022/07/17 04:33:47;;;;;;;5.22;1.60;;;;;;;13.76;74.47;100972.63;3602140;77;20933;-79
2022/07/17 04:38:39;;;;;;;2.95;1.60;;;;;;;13.72;74.12;100983.48;3635373;77;20942;-79
2022/07/17 04:43:31;;;;;;;4.53;1.82;;;;;;;13.70;74.31;100983.91;3660436;76;21521;-79
2022/07/17 04:48:23;;;;;;;3.17;1.67;;;;;;;13.77;74.27;100995.70;3535855;78;21462;-79
2022/07/17 04:53:15;;;;;;;4.60;2.05;;;;;;;13.88;74.43;101000.61;3584731;77;20977;-79
2022/07/17 04:58:07;;;;;;;5.87;1.70;;;;;;;13.88;74.09;101005.84;3570186;77;20931;-79
2022/07/17 05:03:00;;;;;;;4.42;1.77;;;;;;;13.96;74.15;100998.91;3644901;76;20891;-79
2022/07/17 05:07:53;;;;;;;2.08;1.40;;;;;;;13.95;73.93;101003.71;3554542;78;20958;-79
2022/07/17 05:12:45;;;;;;;2.33;1.57;;;;;;;13.97;74.09;101007.20;3555283;78;20958;-79
2022/07/17 05:17:37;;;;;;;2.58;1.80;;;;;;;13.98;74.02;101000.23;3583165;77;20935;-79
2022/07/17 05:22:29;;;;;;;2.72;1.60;;;;;;;14.05;73.87;101012.05;3561889;77;21499;-79
2022/07/17 05:27:21;;;;;;;2.77;1.57;;;;;;;14.15;73.74;101022.16;3571276;77;21002;-79
2022/07/17 05:32:14;;;;;;;4.40;1.35;;;;;;;14.21;73.43;101027.86;3606640;77;20903;-79
2022/07/17 05:37:06;;;;;;;3.65;1.62;;;;;;;14.16;73.14;101029.56;3663210;77;20932;-79
2022/07/17 05:41:58;;;;;;;3.12;2.08;;;;;;;14.26;73.33;101026.15;3515139;78;21531;-79
2022/07/17 05:46:51;;;;;;;3.75;1.80;;;;;;;14.40;73.11;101026.25;3582036;77;21003;-79
2022/07/17 05:51:43;;;;;;;3.37;1.57;;;;;;;14.65;73.10;101027.30;3599107;78;20912;-79
2022/07/17 05:56:35;;;;;;;2.90;1.65;;;;;;;14.72;72.48;101026.45;3639820;77;20983;-79
2022/07/17 06:01:27;;;;;;;2.40;1.40;;;;;;;14.86;72.57;101035.25;3616408;77;21013;-79
2022/07/17 06:06:20;;;;;;;4.22;1.50;;;;;;;14.99;72.37;101037.92;3531014;77;20969;-79
2022/07/17 06:11:13;;;;;;;1.37;1.00;;;;;;;15.29;71.15;101046.73;3551776;77;20939;-79
2022/07/17 06:16:05;;;;;;;1.62;1.10;;;;;;;15.38;71.01;101052.88;3598378;76;20942;-79
2022/07/17 06:20:58;;;;;;;4.03;1.20;;;;;;;15.53;70.77;101057.27;3571794;78;20998;-79
2022/07/17 06:25:50;;;;;;;5.78;1.60;;;;;;;15.72;70.42;101057.29;3614321;78;22429;-79
2022/07/17 06:30:43;;;;;;;4.03;1.50;;;;;;;16.12;69.86;101061.30;3599942;78;20971;-79
2022/07/17 06:35:35;;;;;;;2.98;1.62;;;;;;;16.85;68.12;101066.02;3540421;78;20946;-79
2022/07/17 06:40:28;;;;;;;3.37;1.57;;;;;;;17.39;67.69;101066.63;3571949;77;21022;-79
2022/07/17 06:45:20;;;;;;;3.25;2.00;;;;;;;18.17;66.01;101073.13;3531746;78;20958;-79
2022/07/17 06:50:12;;;;;;;2.58;2.35;;;;;;;17.65;65.49;101073.47;3556385;77;21595;-79
2022/07/17 06:55:05;;;;;;;2.45;1.40;;;;;;;17.69;65.93;101083.11;3598098;78;20935;-79
2022/07/17 06:59:58;;;;;;;2.80;1.30;;;;;;;17.56;66.02;101075.72;3548240;78;20914;-79
2022/07/17 07:04:50;;;;;;;4.53;1.40;;;;;;;17.90;64.23;101090.88;3590071;78;21018;-79
2022/07/17 07:09:42;;;;;;;3.15;1.57;;;;;;;18.17;64.15;101079.70;3547858;77;20947;-79
2022/07/17 07:14:34;;;;;;;4.58;1.60;;;;;;;18.31;63.42;101095.36;3613897;78;21006;-79
2022/07/17 07:19:26;;;;;;;3.58;1.72;;;;;;;18.63;63.08;101096.36;3596348;78;21069;-79
2022/07/17 07:24:18;;;;;;;2.72;1.70;;;;;;;19.88;60.80;101103.20;3574181;78;20943;-79
2022/07/17 07:29:11;;;;;;;4.72;2.52;;;;;;;20.58;60.01;101102.44;3542833;77;21462;-79
2022/07/17 07:34:04;;;;;;;2.67;2.25;;;;;;;20.38;59.63;101114.69;3561335;77;49327;-79
2022/07/17 07:38:56;;;;;;;2.40;2.20;;;;;;;19.78;59.64;101115.22;3579680;76;21021;-79
2022/07/17 07:43:48;;;;;;;5.17;3.25;;;;;;;19.34;60.79;101128.53;3618143;77;20939;-79
2022/07/17 07:48:40;;;;;;;4.20;1.90;;;;;;;19.62;60.18;101136.09;3588705;77;21464;-80
2022/07/17 07:53:33;;;;;;;2.20;1.75;;;;;;;21.37;57.79;101139.26;3550367;79;21495;-81
2022/07/17 07:58:25;;;;;;;3.85;2.08;;;;;;;23.51;54.36;101132.09;3603640;77;20965;-80
2022/07/17 08:03:18;;;;;;;2.77;1.75;;;;;;;22.23;55.89;101141.28;3556720;79;20954;-80
2022/07/17 08:08:10;;;;;;;6.03;2.10;;;;;;;20.99;56.88;101152.81;3568812;77;20935;-80
2022/07/17 08:13:02;;;;;;;3.27;1.62;;;;;;;21.00;56.50;101146.61;3534335;79;22014;-80
2022/07/17 08:17:55;;;;;;;3.60;2.30;;;;;;;20.40;57.43;101151.18;3588756;77;20938;-79
2022/07/17 08:22:48;;;;;;;3.40;1.95;;;;;;;22.20;55.43;101144.89;3529397;77;21005;-77
2022/07/17 08:27:43;;;;;;;7.45;4.83;;;;;;;25.91;49.41;101129.95;3590318;77;20956;-77
2022/07/17 08:32:37;;;;;;;4.25;1.85;;;;;;;26.14;50.05;101136.56;3484226;79;20994;-77
2022/07/17 08:37:29;;;;;;;4.15;2.30;;;;;;;25.18;50.11;101141.17;3497127;79;21006;-77
2022/07/17 08:42:22;;;;;;;2.85;1.80;;;;;;;24.08;51.19;101148.07;3488407;80;20978;-77
2022/07/17 08:47:16;;;;;;;2.72;1.70;;;;;;;27.39;46.21;101136.01;3493821;79;20911;-77
2022/07/17 08:52:10;;;;;;;3.25;2.10;;;;;;;30.10;40.84;101129.53;3496664;80;21611;-77
2022/07/17 08:57:03;;;;;;;2.35;1.55;;;;;;;31.43;40.36;101133.96;3496127;79;20967;-77
2022/07/17 09:01:55;;;;;;;2.70;1.70;;;;;;;32.44;38.57;101136.31;3482486;79;21425;-77
2022/07/17 09:06:59;;;;;;;3.50;1.60;;;;;;;29.84;41.24;101129.25;3524312;79;20990;-77
2022/07/17 09:11:54;;;;;;;2.00;1.40;;;;;;;27.10;42.89;101146.67;3542151;79;20955;-78
2022/07/17 09:17:02;;;;;;;3.27;2.02;;;;;;;26.00;44.24;101148.26;3414268;79;21459;-78
2022/07/17 09:22:15;;;;;;;1.40;1.30;;;;;;;24.20;46.06;101152.98;3497054;79;20962;-78
2022/07/17 09:27:09;;;;;;;2.83;1.22;;;;;;;25.95;43.36;101139.58;3515799;79;22128;-78
2022/07/17 09:32:01;;;;;;;2.08;1.27;;;;;;;28.66;41.17;101144.55;3586286;77;20989;-78
2022/07/17 09:37:01;;;;;;;2.40;1.55;;;;;;;26.83;42.40;101131.45;3586197;78;21522;-78
2022/07/17 09:41:53;;;;;;;1.98;1.25;;;;;;;25.71;44.17;101131.63;3550711;77;20941;-78
2022/07/17 09:46:45;;;;;;;1.30;1.10;;;;;;;24.07;45.68;101139.21;3541599;77;21494;-78
2022/07/17 09:51:40;;;;;;;2.95;1.10;;;;;;;24.91;44.62;101143.92;3598287;78;21491;-78
2022/07/17 09:56:36;;;;;;;2.35;1.20;;;;;;;23.30;45.19;101143.34;3576301;77;21021;-77
2022/07/17 10:01:29;;;;;;;5.60;1.72;;;;;;;22.18;47.07;101143.20;3607287;77;20918;-77
2022/07/17 10:06:24;;;;;;;2.72;1.20;;;;;;;21.65;48.45;101135.14;3575350;78;21089;-78
2022/07/17 10:11:20;;;;;;;3.10;1.35;;;;;;;21.28;49.45;101127.98;3523517;77;21029;-78
2022/07/17 10:16:14;;;;;;;2.13;1.00;;;;;;;21.19;49.16;101134.77;3579226;78;20992;-78
2022/07/17 10:21:12;;;;;;;1.62;0.90;;;;;;;25.53;45.18;101115.91;3573525;78;20930;-77
2022/07/17 10:26:05;;;;;;;1.45;1.17;;;;;;;24.13;44.82;101136.84;3582107;77;20969;-77
2022/07/17 10:30:57;;;;;;;1.70;1.00;;;;;;;22.85;46.14;101143.25;3460442;79;20976;-77
2022/07/17 10:35:50;;;;;;;1.40;1.30;;;;;;;22.05;47.41;101143.50;3481555;79;21009;-77
2022/07/17 10:40:42;;;;;;;2.52;1.30;;;;;;;21.74;47.66;101135.84;3481465;79;21104;-77
2022/07/17 10:45:45;;;;;;;3.22;1.75;;;;;;;24.61;45.46;101137.46;3492328;79;20930;-78
2022/07/17 10:50:51;;;;;;;4.08;1.42;;;;;;;26.71;42.92;101120.84;3488885;79;20939;-78
2022/07/17 10:55:48;;;;;;;2.55;1.47;;;;;;;24.77;43.01;101140.89;3485819;79;21802;-78
2022/07/17 11:00:41;;;;;;;1.10;1.00;;;;;;;24.81;43.84;101145.20;3481096;80;20970;-78
2022/07/17 11:05:33;;;;;;;1.57;1.47;;;;;;;25.35;43.18;101135.27;3469814;81;20975;-78
2022/07/17 11:10:28;;;;;;;2.02;1.37;;;;;;;27.60;41.00;101135.95;3462814;80;20990;-77
2022/07/17 11:15:22;;;;;;;1.40;1.30;;;;;;;26.20;40.73;101136.33;3454284;79;20958;-78
2022/07/17 11:20:15;;;;;;;2.25;1.17;;;;;;;24.66;41.99;101146.58;3483715;79;21225;-78
2022/07/17 11:25:09;;;;;;;1.77;1.32;;;;;;;23.39;43.00;101146.62;3487222;79;20962;-77
2022/07/17 11:30:04;;;;;;;2.27;1.22;;;;;;;22.48;44.59;101154.81;3490522;77;20950;-76
2022/07/17 11:34:56;;;;;;;1.22;1.00;;;;;;;22.44;45.84;101152.70;3580157;77;20930;-77
2022/07/17 11:39:50;;;;;;;3.90;1.25;;;;;;;22.08;45.45;101161.94;3545868;77;21408;-76
2022/07/17 11:44:43;;;;;;;2.33;1.17;;;;;;;21.72;45.61;101157.51;3556833;78;22136;-76
2022/07/17 11:49:41;;;;;;;2.02;1.37;;;;;;;21.61;46.48;101157.75;3528601;77;20942;-76
2022/07/17 11:54:47;;;;;;;1.50;1.30;;;;;;;22.63;46.56;101158.86;3555798;77;20981;-76
2022/07/17 11:59:40;;;;;;;1.13;1.03;;;;;;;23.15;45.38;101157.47;3598042;78;20964;-76
2022/07/17 12:04:32;;;;;;;1.10;1.00;;;;;;;24.25;42.97;101152.38;3615780;77;20961;-77
2022/07/17 12:09:34;;;;;;;3.35;1.37;;;;;;;23.83;43.38;101166.58;3566850;78;22574;-76
2022/07/17 12:14:27;;;;;;;1.50;1.00;;;;;;;22.95;43.71;101171.72;3572125;77;20985;-76
2022/07/17 12:19:23;;;;;;;1.55;1.20;;;;;;;22.12;44.65;101167.16;3568727;78;21012;-77
2022/07/17 12:24:21;;;;;;;1.80;1.07;;;;;;;21.62;45.30;101165.66;3647152;77;24813;-76
2022/07/17 12:29:14;;;;;;;1.15;1.05;;;;;;;21.71;45.79;101164.55;3588844;77;20969;-76
2022/07/17 12:34:06;;;;;;;1.60;1.27;;;;;;;22.35;45.55;101158.70;3595340;77;21774;-76
2022/07/17 12:38:58;;;;;;;1.22;1.12;;;;;;;23.77;45.86;101151.67;3587234;77;20953;-77
2022/07/17 12:43:50;;;;;;;2.87;1.35;;;;;;;25.01;43.55;101153.31;3548295;77;21075;-76
2022/07/17 12:48:45;;;;;;;1.37;1.25;;;;;;;25.69;40.68;101142.33;3592811;78;20933;-77
2022/07/17 12:53:37;;;;;;;1.67;1.42;;;;;;;26.28;41.06;101140.47;3557144;77;21310;-77
2022/07/17 12:58:30;;;;;;;5.22;1.77;;;;;;;26.12;39.32;101142.43;3616589;78;21032;-77
2022/07/17 13:03:22;;;;;;;1.27;0.88;;;;;;;25.77;39.60;101142.05;3635259;77;21184;-77
2022/07/17 13:08:14;;;;;;;1.85;1.10;;;;;;;25.66;39.47;101135.78;3603470;77;21514;-77
2022/07/17 13:13:07;;;;;;;1.50;1.32;;;;;;;24.92;39.60;101164.28;3579581;78;20952;-78
2022/07/17 13:18:00;;;;;;;1.40;0.93;;;;;;;24.07;39.58;101148.98;3589793;78;21015;-77
2022/07/17 13:22:52;;;;;;;1.57;1.05;;;;;;;23.72;40.03;101152.27;3585375;77;21937;-77
2022/07/17 13:27:44;;;;;;;2.15;0.70;;;;;;;23.80;39.84;101150.27;3615398;77;21007;-77
2022/07/17 13:32:37;;;;;;;1.27;0.70;;;;;;;24.77;39.04;101143.55;3577923;77;20946;-77
2022/07/17 13:37:29;;;;;;;3.25;1.22;;;;;;;25.60;38.14;101133.85;3536394;79;21476;-77
2022/07/17 13:42:21;;;;;;;1.72;1.30;;;;;;;26.30;38.41;101136.80;3480361;77;21998;-76
2022/07/17 13:47:14;;;;;;;1.40;1.10;;;;;;;26.50;37.09;101143.08;3541464;77;20957;-77
2022/07/17 13:52:06;;;;;;;1.30;1.00;;;;;;;26.21;36.68;101142.04;3587304;77;21471;-77
2022/07/17 13:56:59;;;;;;;2.77;0.88;;;;;;;26.74;35.98;101146.50;3514645;77;20950;-77
2022/07/17 14:01:52;;;;;;;2.67;0.93;;;;;;;26.47;35.74;101145.42;3567695;79;20958;-77
2022/07/17 14:06:45;;;;;;;1.37;0.85;;;;;;;25.59;35.70;101162.72;3527148;77;21504;-77
2022/07/17 14:11:38;;;;;;;1.00;0.90;;;;;;;24.62;36.66;101176.39;3566729;77;21562;-77
2022/07/17 14:16:30;;;;;;;1.42;1.17;;;;;;;23.79;37.90;101183.88;3567666;79;20918;-77
2022/07/17 14:21:23;;;;;;;1.25;1.00;;;;;;;23.18;39.21;101179.94;3572806;78;20969;-76
2022/07/17 14:26:15;;;;;;;1.62;1.52;;;;;;;22.96;39.81;101178.74;3599826;77;20993;-77
2022/07/17 14:31:07;;;;;;;4.35;2.47;;;;;;;22.80;40.35;101183.16;3555997;77;20927;-76
2022/07/17 14:35:59;;;;;;;3.40;2.75;;;;;;;22.72;40.62;101177.17;3524586;77;21090;-77
2022/07/17 14:40:51;;;;;;;3.22;1.90;;;;;;;22.62;41.19;101178.31;3563110;78;21526;-76
2022/07/17 14:45:44;;;;;;;1.85;1.20;;;;;;;22.51;41.62;101181.70;3563178;77;20980;-77
2022/07/17 14:50:36;;;;;;;1.77;1.55;;;;;;;22.34;41.97;101180.78;3594282;77;21002;-76
2022/07/17 14:55:28;;;;;;;1.80;1.12;;;;;;;22.08;42.36;101180.47;3586390;79;20925;-77
2022/07/17 15:00:20;;;;;;;3.72;1.65;;;;;;;22.04;42.81;101176.63;3532496;77;20966;-77
2022/07/17 15:05:12;;;;;;;1.75;1.35;;;;;;;21.95;43.27;101171.09;3569668;78;21014;-76
2022/07/17 15:10:06;;;;;;;2.70;1.70;;;;;;;21.78;43.40;101179.39;3538978;77;20962;-74
2022/07/17 15:14:59;;;;;;;3.72;2.02;;;;;;;21.68;43.58;101178.73;3567460;77;21500;-74
2022/07/17 15:19:51;;;;;;;5.87;4.75;;;;;;;21.65;44.46;101184.09;3546312;77;20938;-76
2022/07/17 15:24:43;;;;;;;2.45;2.25;;;;;;;21.91;44.60;101187.95;3558480;77;21725;-76
2022/07/17 15:29:36;;;;;;;2.25;1.30;;;;;;;22.16;44.61;101183.39;3573341;77;21120;-76
2022/07/17 15:34:28;;;;;;;1.95;1.02;;;;;;;22.15;44.45;101175.05;3517460;77;20956;-76
2022/07/17 15:39:20;;;;;;;1.50;1.40;;;;;;;22.23;44.86;101173.06;3579950;78;20989;-76
2022/07/17 15:44:15;;;;;;;2.27;1.65;;;;;;;22.36;44.84;101175.87;3561108;77;21059;-76
2022/07/17 15:49:08;;;;;;;2.40;1.45;;;;;;;22.37;45.69;101176.28;3556335;77;21653;-76
2022/07/17 15:54:00;;;;;;;2.02;1.10;;;;;;;22.38;46.08;101179.82;3595019;77;21172;-76
2022/07/17 15:58:52;;;;;;;1.62;1.50;;;;;;;22.98;45.79;101179.56;3555274;78;21487;-76
2022/07/17 16:03:44;;;;;;;1.42;1.17;;;;;;;23.19;45.63;101175.02;3588493;78;20940;-77
2022/07/17 16:08:36;;;;;;;1.70;1.00;;;;;;;22.88;44.59;101176.31;3620912;77;20898;-76
2022/07/17 16:13:29;;;;;;;2.83;1.12;;;;;;;22.52;43.11;101169.74;3593113;77;21019;-77
2022/07/17 16:18:21;;;;;;;1.75;0.95;;;;;;;22.26;43.36;101176.55;3543175;77;21444;-76
2022/07/17 16:23:13;;;;;;;3.83;1.20;;;;;;;22.18;43.20;101170.55;3569014;77;20938;-76
2022/07/17 16:28:06;;;;;;;1.37;0.90;;;;;;;22.04;43.47;101168.68;3567149;78;22070;-76
2022/07/17 16:32:58;;;;;;;1.62;1.00;;;;;;;21.97;43.13;101169.27;3488871;79;20939;-76
2022/07/17 16:37:50;;;;;;;1.35;0.80;;;;;;;21.96;43.34;101167.52;3459986;79;21464;-76
2022/07/17 16:42:42;;;;;;;1.52;1.30;;;;;;;21.98;43.26;101168.38;3533803;78;20915;-76
2022/07/17 16:47:35;;;;;;;3.83;1.12;;;;;;;21.93;43.34;101162.31;3457075;78;21033;-76
2022/07/17 16:52:27;;;;;;;1.42;0.90;;;;;;;21.78;42.90;101166.16;3530842;78;20974;-76
2022/07/17 16:57:19;;;;;;;2.37;1.55;;;;;;;21.68;42.93;101156.25;3433547;78;20939;-76
2022/07/17 17:02:12;;;;;;;3.05;1.02;;;;;;;21.60;43.57;101160.83;3507366;78;21690;-76
2022/07/17 17:07:05;;;;;;;2.95;1.40;;;;;;;21.54;44.35;101157.00;3483620;79;20978;-77
2022/07/17 17:11:58;;;;;;;2.27;1.12;;;;;;;21.41;45.52;101160.77;3456380;80;20994;-76
2022/07/17 17:16:51;;;;;;;5.58;1.25;;;;;;;21.26;45.83;101158.86;3524219;80;21499;-77
2022/07/17 17:21:43;;;;;;;1.20;1.02;;;;;;;21.23;46.38;101162.91;3498545;79;21576;-77
2022/07/17 17:26:35;;;;;;;2.90;1.00;;;;;;;21.14;46.87;101171.89;3568138;78;21856;-77
2022/07/17 17:31:27;;;;;;;2.85;1.50;;;;;;;21.05;47.97;101172.50;3552847;77;21021;-77
2022/07/17 17:36:19;;;;;;;3.90;1.00;;;;;;;21.04;48.22;101173.42;3550334;77;20966;-77
2022/07/17 17:41:12;;;;;;;2.92;1.25;;;;;;;20.91;48.44;101180.26;3512120;77;21464;-78
2022/07/17 17:46:04;;;;;;;1.90;1.55;;;;;;;20.68;48.83;101169.24;3572295;77;21432;-78
2022/07/17 17:50:56;;;;;;;2.33;1.30;;;;;;;20.48;49.38;101174.39;3579201;77;21169;-77
2022/07/17 17:55:50;;;;;;;2.40;1.42;;;;;;;20.32;49.48;101176.86;3576371;77;20879;-78
2022/07/17 18:00:43;;;;;;;2.08;1.57;;;;;;;20.13;49.81;101173.17;3572840;77;20957;-77
2022/07/17 18:05:35;;;;;;;4.67;1.40;;;;;;;20.02;50.74;101175.11;3634540;77;20985;-77
2022/07/17 18:10:27;;;;;;;2.12;1.45;;;;;;;19.91;51.73;101181.00;3572558;77;20922;-77
2022/07/17 18:15:19;;;;;;;5.75;2.52;;;;;;;19.85;52.22;101188.98;3563052;77;21259;-77
2022/07/17 18:20:12;;;;;;;2.90;1.60;;;;;;;19.83;52.71;101189.45;3609409;77;22119;-77
2022/07/17 18:25:06;;;;;;;1.90;1.50;;;;;;;19.76;52.61;101196.16;3590194;77;21219;-77
2022/07/17 18:29:58;;;;;;;6.60;1.90;;;;;;;19.69;52.91;101195.78;3563214;77;20919;-77
2022/07/17 18:34:50;;;;;;;7.05;2.98;;;;;;;19.61;52.59;101201.59;3609244;77;20941;-77
2022/07/17 18:39:42;;;;;;;1.77;1.20;;;;;;;19.53;52.61;101213.56;3599080;77;20961;-77
2022/07/17 18:44:37;;;;;;;2.87;2.45;;;;;;;19.46;52.71;101209.25;3582655;77;21032;-77
2022/07/17 18:49:30;;;;;;;2.15;1.40;;;;;;;19.37;52.92;101218.56;3531751;77;21601;-77
2022/07/17 18:54:23;;;;;;;4.17;1.57;;;;;;;19.29;53.33;101219.97;3582990;77;20922;-77
2022/07/17 18:59:16;;;;;;;1.80;1.45;;;;;;;19.20;53.10;101218.77;3598181;77;21523;-77
2022/07/17 19:04:08;;;;;;;2.08;1.57;;;;;;;19.13;53.55;101230.27;3640767;76;21487;-77
2022/07/17 19:09:04;;;;;;;2.90;1.60;;;;;;;19.01;53.62;101236.52;3561385;77;20872;-77
2022/07/17 19:13:56;;;;;;;3.77;1.30;;;;;;;18.92;54.01;101240.11;3546639;77;20958;-77
2022/07/17 19:18:49;;;;;;;2.95;1.47;;;;;;;18.81;53.95;101238.89;3532389;77;20931;-77
2022/07/17 19:23:41;;;;;;;4.20;1.95;;;;;;;18.70;54.55;101245.12;3609195;77;20953;-77
2022/07/17 19:28:34;;;;;;;2.85;1.65;;;;;;;18.62;55.03;101243.87;3618139;77;21054;-77
2022/07/17 19:33:27;;;;;;;2.52;1.67;;;;;;;18.55;54.95;101245.67;3513584;78;20954;-77
2022/07/17 19:38:20;;;;;;;2.75;2.20;;;;;;;18.45;55.44;101249.25;3508831;77;21061;-77
2022/07/17 19:43:13;;;;;;;2.75;2.08;;;;;;;18.38;55.92;101255.44;3522713;78;20958;-77
2022/07/17 19:48:06;;;;;;;2.98;1.77;;;;;;;18.28;56.39;101252.88;3582467;78;20953;-77
2022/07/17 19:52:58;;;;;;;3.12;2.22;;;;;;;18.13;56.51;101260.85;3534554;78;21394;-77
2022/07/17 19:57:51;;;;;;;2.58;1.75;;;;;;;18.02;57.02;101264.86;3548614;78;21455;-77
2022/07/17 20:02:44;;;;;;;5.65;2.10;;;;;;;17.91;57.40;101274.12;3549969;78;20958;-77
2022/07/17 20:07:37;;;;;;;2.95;2.00;;;;;;;17.78;57.71;101269.77;3503045;78;21483;-77
2022/07/17 20:12:29;;;;;;;3.52;2.17;;;;;;;17.62;57.94;101273.34;3445410;78;20958;-77
2022/07/17 20:17:21;;;;;;;3.80;2.37;;;;;;;17.45;58.06;101276.88;3494819;78;21073;-76
2022/07/17 20:22:13;;;;;;;4.45;2.55;;;;;;;17.29;58.24;101273.84;3456210;78;21013;-76
2022/07/17 20:27:06;;;;;;;5.97;2.58;;;;;;;17.11;58.40;101274.30;3441706;82;21493;-77
2022/07/17 20:31:58;;;;;;;3.67;2.10;;;;;;;16.97;58.38;101276.06;3556151;79;21021;-76
2022/07/17 20:36:50;;;;;;;3.80;3.08;;;;;;;16.87;58.56;101272.59;3608453;77;20954;-75
2022/07/17 20:41:43;;;;;;;3.77;2.37;;;;;;;16.80;58.80;101280.44;3586238;77;20935;-75
2022/07/17 20:46:36;;;;;;;7.03;2.50;;;;;;;16.74;59.26;101289.16;3572484;79;20958;-76
2022/07/17 20:51:29;;;;;;;6.33;2.70;;;;;;;16.69;59.43;101285.69;3559221;77;21040;-76
2022/07/17 20:56:21;;;;;;;3.70;2.22;;;;;;;16.58;59.67;101281.29;3512539;77;21504;-76
2022/07/17 21:01:13;;;;;;;5.60;2.77;;;;;;;16.52;59.67;101289.14;3586820;77;20962;-76
2022/07/17 21:06:07;;;;;;;3.50;1.98;;;;;;;16.41;60.15;101295.27;3565813;77;21025;-75
2022/07/17 21:11:00;;;;;;;3.05;1.85;;;;;;;16.30;60.30;101293.48;3586476;79;21448;-76
2022/07/17 21:15:54;;;;;;;3.55;2.15;;;;;;;16.16;60.53;101295.19;3559358;77;21475;-76
2022/07/17 21:20:46;;;;;;;3.02;1.98;;;;;;;16.06;60.47;101290.77;3495846;77;21518;-76
2022/07/17 21:25:38;;;;;;;4.87;2.08;;;;;;;15.95;60.87;101299.50;3567455;79;21048;-76
2022/07/17 21:30:31;;;;;;;4.53;3.27;;;;;;;15.79;60.92;101304.21;3539193;77;21665;-76
2022/07/17 21:35:24;;;;;;;4.72;2.12;;;;;;;15.68;61.16;101304.56;3513934;78;20982;-77
2022/07/17 21:40:16;;;;;;;4.12;2.42;;;;;;;15.54;61.41;101300.14;3496021;79;20948;-76
2022/07/17 21:45:09;;;;;;;2.70;1.77;;;;;;;15.47;61.66;101304.91;3527845;79;20916;-76
2022/07/17 21:50:04;;;;;;;2.87;1.57;;;;;;;15.44;61.73;101303.56;3516605;79;20873;-76
2022/07/17 21:54:57;;;;;;;4.47;2.27;;;;;;;15.34;61.94;101309.60;3472827;78;21101;-76
2022/07/17 21:59:49;;;;;;;4.05;2.22;;;;;;;15.20;62.11;101302.95;3547947;78;20908;-76
2022/07/17 22:04:41;;;;;;;2.35;1.85;;;;;;;15.10;62.20;101307.70;3550197;78;20947;-76
2022/07/17 22:09:34;;;;;;;3.62;1.72;;;;;;;14.99;62.44;101316.78;3477032;78;21020;-76
2022/07/17 22:14:27;;;;;;;2.87;1.70;;;;;;;14.84;62.57;101319.71;3564815;78;20960;-76
2022/07/17 22:19:19;;;;;;;3.50;1.92;;;;;;;14.79;62.76;101321.41;3531499;78;20997;-76
2022/07/17 22:24:12;;;;;;;3.75;1.75;;;;;;;14.73;62.96;101321.33;3541042;78;20923;-76
2022/07/17 22:29:05;;;;;;;6.80;2.10;;;;;;;14.70;62.99;101316.50;3549709;78;20993;-76
2022/07/17 22:33:57;;;;;;;5.35;1.72;;;;;;;14.64;62.96;101324.73;3520783;79;21456;-77
2022/07/17 22:38:49;;;;;;;3.15;1.82;;;;;;;14.49;63.13;101325.42;3520660;78;21037;-77